
Distance (Route):
Temperature : -35.9°C
Humidity : 39.9%
Pressure : 273.4hPa| Receiver | Frames | First received | Last received |
|---|---|---|---|
| PU1XMG-16 | 277 | 2026-09-01 11:32:46 | 2026-09-01 11:59:03 |
| Receiver | Date | Latitude | Longitude | Direction | Speed | Altitude | Climb | Temperature | Humidity | Pressure | Voltage | Killtimer | Uptime | BKT | XDATA |
|---|---|---|---|---|---|---|---|---|---|---|---|---|---|---|---|
| PU1XMG-16 | 2026-09-01 11:59:03 | -22.93019 | -42.97997 | 119° | 64km/h | 10317m | 4.4m/s | -35.9°C | 39.9% | 273.4hPa | 0V | 00:00:00 | 00:00:00 | 00:00:00 | |
| PU1XMG-16 | 2026-09-01 11:58:57 | -22.92972 | -42.98085 | 120° | 57km/h | 10278m | 5.7m/s | -35.5°C | 39.9% | 274.9hPa | 0V | 00:00:00 | 00:00:00 | 00:00:00 | |
| PU1XMG-16 | 2026-09-01 11:58:51 | -22.92935 | -42.98158 | 112° | 60km/h | 10245m | 6.0m/s | -35.3°C | 40.3% | 276.3hPa | 0V | 00:00:00 | 00:00:00 | 00:00:00 | |
| PU1XMG-16 | 2026-09-01 11:58:46 | -22.92901 | -42.98247 | 120° | 66km/h | 10217m | 3.0m/s | -35.0°C | 41.8% | 277.4hPa | 0V | 00:00:00 | 00:00:00 | 00:00:00 | |
| PU1XMG-16 | 2026-09-01 11:58:41 | -22.92862 | -42.98320 | 116° | 64km/h | 10185m | 5.7m/s | -34.8°C | 39.8% | 278.8hPa | 0V | 00:00:00 | 00:00:00 | 00:00:00 | |
| PU1XMG-16 | 2026-09-01 11:58:36 | -22.92834 | -42.98397 | 114° | 62km/h | 10154m | 5.7m/s | -34.5°C | 43.7% | 280.1hPa | 0V | 00:00:00 | 00:00:00 | 00:00:00 | |
| PU1XMG-16 | 2026-09-01 11:58:30 | -22.92794 | -42.98480 | 120° | 51km/h | 10125m | 4.8m/s | -34.3°C | 44.2% | 281.3hPa | 0V | 00:00:00 | 00:00:00 | 00:00:00 | |
| PU1XMG-16 | 2026-09-01 11:58:24 | -22.92768 | -42.98548 | 101° | 64km/h | 10091m | 5.6m/s | -34.0°C | 45.9% | 282.5hPa | 0V | 00:00:00 | 00:00:00 | 00:00:00 | |
| PU1XMG-16 | 2026-09-01 11:58:18 | -22.92747 | -42.98651 | 114° | 62km/h | 10054m | 7.5m/s | -33.8°C | 49.0% | 283.8hPa | 0V | 00:00:00 | 00:00:00 | 00:00:00 | |
| PU1XMG-16 | 2026-09-01 11:58:14 | -22.92718 | -42.98723 | 117° | 57km/h | 10016m | 4.1m/s | -33.4°C | 51.2% | 285.4hPa | 0V | 00:00:00 | 00:00:00 | 00:00:00 | |
| PU1XMG-16 | 2026-09-01 11:58:06 | -22.92671 | -42.98814 | 113° | 53km/h | 9982m | 8.6m/s | -33.4°C | 60.1% | 286.7hPa | 0V | 00:00:00 | 00:00:00 | 00:00:00 | |
| PU1XMG-16 | 2026-09-01 11:58:00 | -22.92644 | -42.98910 | 113° | 57km/h | 9928m | 6.3m/s | -33.4°C | 68.1% | 288.8hPa | 0V | 00:00:00 | 00:00:00 | 00:00:00 | |
| PU1XMG-16 | 2026-09-01 11:57:55 | -22.92612 | -42.98991 | 111° | 58km/h | 9903m | 2.5m/s | -33.1°C | 69.7% | 290.0hPa | 0V | 00:00:00 | 00:00:00 | 00:00:00 | |
| PU1XMG-16 | 2026-09-01 11:57:49 | -22.92590 | -42.99072 | 107° | 51km/h | 9866m | 10.4m/s | -32.9°C | 66.3% | 291.6hPa | 0V | 00:00:00 | 00:00:00 | 00:00:00 | |
| PU1XMG-16 | 2026-09-01 11:57:45 | -22.92566 | -42.99144 | 115° | 51km/h | 9831m | 5.0m/s | -32.5°C | 66.7% | 293.1hPa | 0V | 00:00:00 | 00:00:00 | 00:00:00 | |
| PU1XMG-16 | 2026-09-01 11:57:38 | -22.92532 | -42.99215 | 128° | 53km/h | 9798m | 8.2m/s | -32.2°C | 64.7% | 294.4hPa | 0V | 00:00:00 | 00:00:00 | 00:00:00 | |
| PU1XMG-16 | 2026-09-01 11:57:33 | -22.92496 | -42.99284 | 107° | 53km/h | 9768m | 9.6m/s | -31.9°C | 64.1% | 295.7hPa | 0V | 00:00:00 | 00:00:00 | 00:00:00 | |
| PU1XMG-16 | 2026-09-01 11:57:26 | -22.92476 | -42.99373 | 103° | 47km/h | 9728m | 6.2m/s | -31.6°C | 66.5% | 297.3hPa | 0V | 00:00:00 | 00:00:00 | 00:00:00 | |
| PU1XMG-16 | 2026-09-01 11:57:21 | -22.92451 | -42.99435 | 125° | 46km/h | 9693m | 7.9m/s | -31.4°C | 69.5% | 298.8hPa | 0V | 00:00:00 | 00:00:00 | 00:00:00 | |
| PU1XMG-16 | 2026-09-01 11:57:16 | -22.92405 | -42.99516 | 115° | 62km/h | 9653m | 2.3m/s | -31.1°C | 73.6% | 300.6hPa | 0V | 00:00:00 | 00:00:00 | 00:00:00 | |
| PU1XMG-16 | 2026-09-01 11:57:11 | -22.92366 | -42.99611 | 117° | 86km/h | 9619m | 7.4m/s | -30.8°C | 71.5% | 302.0hPa | 0V | 00:00:00 | 00:00:00 | 00:00:00 | |
| PU1XMG-16 | 2026-09-01 11:57:05 | -22.92326 | -42.99712 | 111° | 62km/h | 9580m | 7.5m/s | -30.4°C | 71.0% | 303.7hPa | 0V | 00:00:00 | 00:00:00 | 00:00:00 | |
| PU1XMG-16 | 2026-09-01 11:56:59 | -22.92302 | -42.99787 | 108° | 49km/h | 9550m | 4.0m/s | -30.1°C | 68.8% | 304.9hPa | 0V | 00:00:00 | 00:00:00 | 00:00:00 | |
| PU1XMG-16 | 2026-09-01 11:56:53 | -22.92253 | -42.99884 | 120° | 77km/h | 9516m | 8.7m/s | -29.8°C | 68.6% | 306.4hPa | 0V | 00:00:00 | 00:00:00 | 00:00:00 | |
| PU1XMG-16 | 2026-09-01 11:56:49 | -22.92222 | -42.99980 | 105° | 71km/h | 9486m | 5.0m/s | -29.6°C | 70.4% | 307.6hPa | 0V | 00:00:00 | 00:00:00 | 00:00:00 | |
| PU1XMG-16 | 2026-09-01 11:56:43 | -22.92184 | -43.00065 | 129° | 62km/h | 9455m | 9.8m/s | -29.4°C | 69.4% | 309.0hPa | 0V | 00:00:00 | 00:00:00 | 00:00:00 | |
| PU1XMG-16 | 2026-09-01 11:56:38 | -22.92135 | -43.00161 | 121° | 91km/h | 9419m | 6.7m/s | -29.2°C | 72.0% | 310.5hPa | 0V | 00:00:00 | 00:00:00 | 00:00:00 | |
| PU1XMG-16 | 2026-09-01 11:56:32 | -22.92080 | -43.00286 | 118° | 75km/h | 9385m | 8.2m/s | -29.0°C | 73.0% | 311.9hPa | 0V | 00:00:00 | 00:00:00 | 00:00:00 | |
| PU1XMG-16 | 2026-09-01 11:56:26 | -22.92044 | -43.00370 | 114° | 71km/h | 9357m | 5.8m/s | -28.8°C | 74.9% | 313.2hPa | 0V | 00:00:00 | 00:00:00 | 00:00:00 | |
| PU1XMG-16 | 2026-09-01 11:56:21 | -22.91996 | -43.00485 | 116° | 78km/h | 9318m | 8.1m/s | -28.5°C | 73.4% | 314.8hPa | 0V | 00:00:00 | 00:00:00 | 00:00:00 | |
| PU1XMG-16 | 2026-09-01 11:56:16 | -22.91953 | -43.00583 | 115° | 77km/h | 9292m | 5.6m/s | -28.3°C | 79.4% | 316.1hPa | 0V | 00:00:00 | 00:00:00 | 00:00:00 | |
| PU1XMG-16 | 2026-09-01 11:56:10 | -22.91902 | -43.00712 | 116° | 88km/h | 9262m | 5.3m/s | -28.1°C | 78.4% | 317.4hPa | 0V | 00:00:00 | 00:00:00 | 00:00:00 | |
| PU1XMG-16 | 2026-09-01 11:56:04 | -22.91858 | -43.00824 | 111° | 64km/h | 9223m | 3.9m/s | -27.7°C | 78.5% | 319.1hPa | 0V | 00:00:00 | 00:00:00 | 00:00:00 | |
| PU1XMG-16 | 2026-09-01 11:55:58 | -22.91808 | -43.00928 | 114° | 82km/h | 9194m | 2.5m/s | -27.5°C | 78.8% | 320.5hPa | 0V | 00:00:00 | 00:00:00 | 00:00:00 | |
| PU1XMG-16 | 2026-09-01 11:55:53 | -22.91771 | -43.01028 | 106° | 68km/h | 9172m | 7.8m/s | -27.3°C | 77.1% | 321.6hPa | 0V | 00:00:00 | 00:00:00 | 00:00:00 | |
| PU1XMG-16 | 2026-09-01 11:55:47 | -22.91750 | -43.01114 | 117° | 62km/h | 9141m | 7.8m/s | -27.1°C | 74.3% | 322.8hPa | 0V | 00:00:00 | 00:00:00 | 00:00:00 | |
| PU1XMG-16 | 2026-09-01 11:55:41 | -22.91703 | -43.01215 | 109° | 73km/h | 9098m | 10.9m/s | -26.7°C | 70.0% | 324.7hPa | 0V | 00:00:00 | 00:00:00 | 00:00:00 | |
| PU1XMG-16 | 2026-09-01 11:55:36 | -22.91646 | -43.01342 | 125° | 84km/h | 9065m | 3.4m/s | -26.4°C | 68.4% | 326.3hPa | 0V | 00:00:00 | 00:00:00 | 00:00:00 | |
| PU1XMG-16 | 2026-09-01 11:55:30 | -22.91592 | -43.01437 | 114° | 66km/h | 9027m | 4.6m/s | -26.1°C | 70.7% | 327.9hPa | 0V | 00:00:00 | 00:00:00 | 00:00:00 | |
| PU1XMG-16 | 2026-09-01 11:55:24 | -22.91557 | -43.01536 | 113° | 84km/h | 9000m | 7.2m/s | -26.0°C | 74.9% | 329.0hPa | 0V | 00:00:00 | 00:00:00 | 00:00:00 | |
| PU1XMG-16 | 2026-09-01 11:55:19 | -22.91514 | -43.01627 | 116° | 62km/h | 8970m | 5.9m/s | -25.7°C | 74.9% | 330.5hPa | 0V | 00:00:00 | 00:00:00 | 00:00:00 | |
| PU1XMG-16 | 2026-09-01 11:55:14 | -22.91488 | -43.01706 | 118° | 68km/h | 8947m | 5.0m/s | -25.5°C | 75.3% | 331.7hPa | 0V | 00:00:00 | 00:00:00 | 00:00:00 | |
| PU1XMG-16 | 2026-09-01 11:55:09 | -22.91427 | -43.01817 | 110° | 75km/h | 8907m | 7.3m/s | -25.3°C | 72.1% | 333.4hPa | 0V | 00:00:00 | 00:00:00 | 00:00:00 | |
| PU1XMG-16 | 2026-09-01 11:55:03 | -22.91402 | -43.01911 | 110° | 64km/h | 8872m | 8.7m/s | -25.0°C | 71.0% | 334.9hPa | 0V | 00:00:00 | 00:00:00 | 00:00:00 | |
| PU1XMG-16 | 2026-09-01 11:54:59 | -22.91377 | -43.02008 | 106° | 75km/h | 8842m | 3.3m/s | -24.8°C | 71.8% | 336.3hPa | 0V | 00:00:00 | 00:00:00 | 00:00:00 | |
| PU1XMG-16 | 2026-09-01 11:54:53 | -22.91358 | -43.02108 | 109° | 60km/h | 8800m | 10.8m/s | -24.5°C | 70.2% | 338.2hPa | 0V | 00:00:00 | 00:00:00 | 00:00:00 | |
| PU1XMG-16 | 2026-09-01 11:54:46 | -22.91322 | -43.02225 | 110° | 73km/h | 8757m | 4.1m/s | -24.1°C | 71.3% | 340.3hPa | 0V | 00:00:00 | 00:00:00 | 00:00:00 | |
| PU1XMG-16 | 2026-09-01 11:54:41 | -22.91295 | -43.02336 | 107° | 71km/h | 8719m | 7.0m/s | -23.8°C | 71.7% | 342.0hPa | 0V | 00:00:00 | 00:00:00 | 00:00:00 | |
| PU1XMG-16 | 2026-09-01 11:54:36 | -22.91269 | -43.02423 | 114° | 71km/h | 8690m | 9.6m/s | -23.7°C | 72.3% | 343.3hPa | 0V | 00:00:00 | 00:00:00 | 00:00:00 | |
| PU1XMG-16 | 2026-09-01 11:54:30 | -22.91237 | -43.02524 | 103° | 78km/h | 8660m | 7.2m/s | -23.6°C | 72.2% | 344.7hPa | 0V | 00:00:00 | 00:00:00 | 00:00:00 | |
| PU1XMG-16 | 2026-09-01 11:54:25 | -22.91218 | -43.02642 | 97° | 75km/h | 8615m | 9.5m/s | -23.4°C | 70.9% | 346.8hPa | 0V | 00:00:00 | 00:00:00 | 00:00:00 | |
| PU1XMG-16 | 2026-09-01 11:54:20 | -22.91207 | -43.02733 | 98° | 57km/h | 8583m | 7.0m/s | -23.1°C | 67.8% | 348.3hPa | 0V | 00:00:00 | 00:00:00 | 00:00:00 | |
| PU1XMG-16 | 2026-09-01 11:54:14 | -22.91183 | -43.02839 | 108° | 69km/h | 8550m | 10.1m/s | -22.8°C | 66.0% | 350.0hPa | 0V | 00:00:00 | 00:00:00 | 00:00:00 | |
| PU1XMG-16 | 2026-09-01 11:54:09 | -22.91166 | -43.02924 | 91° | 60km/h | 8519m | 5.5m/s | -22.5°C | 64.5% | 351.5hPa | 0V | 00:00:00 | 00:00:00 | 00:00:00 | |
| PU1XMG-16 | 2026-09-01 11:54:03 | -22.91159 | -43.03041 | 101° | 84km/h | 8485m | 8.6m/s | -22.3°C | 62.8% | 353.1hPa | 0V | 00:00:00 | 00:00:00 | 00:00:00 | |
| PU1XMG-16 | 2026-09-01 11:53:57 | -22.91151 | -43.03174 | 95° | 82km/h | 8448m | 7.3m/s | -22.0°C | 61.8% | 355.0hPa | 0V | 00:00:00 | 00:00:00 | 00:00:00 | |
| PU1XMG-16 | 2026-09-01 11:53:51 | -22.91136 | -43.03277 | 104° | 71km/h | 8415m | 6.1m/s | -21.9°C | 62.7% | 356.6hPa | 0V | 00:00:00 | 00:00:00 | 00:00:00 | |
| PU1XMG-16 | 2026-09-01 11:53:47 | -22.91121 | -43.03384 | 96° | 78km/h | 8383m | 9.8m/s | -21.8°C | 65.4% | 358.1hPa | 0V | 00:00:00 | 00:00:00 | 00:00:00 | |
| PU1XMG-16 | 2026-09-01 11:53:41 | -22.91113 | -43.03492 | 95° | 73km/h | 8343m | 5.4m/s | -21.6°C | 69.7% | 360.1hPa | 0V | 00:00:00 | 00:00:00 | 00:00:00 | |
| PU1XMG-16 | 2026-09-01 11:53:36 | -22.91105 | -43.03604 | 93° | 86km/h | 8304m | 8.2m/s | -21.5°C | 70.6% | 361.9hPa | 0V | 00:00:00 | 00:00:00 | 00:00:00 | |
| PU1XMG-16 | 2026-09-01 11:53:31 | -22.91099 | -43.03721 | 93° | 78km/h | 8273m | 6.6m/s | -21.3°C | 71.2% | 363.5hPa | 0V | 00:00:00 | 00:00:00 | 00:00:00 | |
| PU1XMG-16 | 2026-09-01 11:53:25 | -22.91092 | -43.03828 | 93° | 82km/h | 8240m | 8.0m/s | -21.1°C | 71.7% | 365.1hPa | 0V | 00:00:00 | 00:00:00 | 00:00:00 | |
| PU1XMG-16 | 2026-09-01 11:53:20 | -22.91086 | -43.03964 | 93° | 95km/h | 8195m | 5.4m/s | -20.9°C | 75.4% | 367.3hPa | 0V | 00:00:00 | 00:00:00 | 00:00:00 | |
| PU1XMG-16 | 2026-09-01 11:53:15 | -22.91079 | -43.04084 | 94° | 78km/h | 8156m | 7.2m/s | -20.6°C | 76.9% | 369.3hPa | 0V | 00:00:00 | 00:00:00 | 00:00:00 | |
| PU1XMG-16 | 2026-09-01 11:53:10 | -22.91069 | -43.04191 | 98° | 80km/h | 8123m | 5.9m/s | -20.4°C | 76.8% | 370.7hPa | 0V | 00:00:00 | 00:00:00 | 00:00:00 | |
| PU1XMG-16 | 2026-09-01 11:53:04 | -22.91065 | -43.04336 | 92° | 93km/h | 8087m | 6.2m/s | -20.2°C | 77.1% | 372.6hPa | 0V | 00:00:00 | 00:00:00 | 00:00:00 | |
| PU1XMG-16 | 2026-09-01 11:52:59 | -22.91056 | -43.04451 | 101° | 84km/h | 8054m | 8.7m/s | -19.9°C | 76.5% | 374.3hPa | 0V | 00:00:00 | 00:00:00 | 00:00:00 | |
| PU1XMG-16 | 2026-09-01 11:52:53 | -22.91040 | -43.04588 | 93° | 88km/h | 8017m | 4.8m/s | -19.6°C | 77.3% | 376.2hPa | 0V | 00:00:00 | 00:00:00 | 00:00:00 | |
| PU1XMG-16 | 2026-09-01 11:52:42 | -22.91010 | -43.04825 | 85° | 80km/h | 7951m | 10.6m/s | -19.3°C | 76.3% | 379.4hPa | 0V | 00:00:00 | 00:00:00 | 00:00:00 | |
| PU1XMG-16 | 2026-09-01 11:52:36 | -22.91009 | -43.04946 | 103° | 75km/h | 7914m | 5.9m/s | -19.3°C | 81.0% | 381.4hPa | 0V | 00:00:00 | 00:00:00 | 00:00:00 | |
| PU1XMG-16 | 2026-09-01 11:52:31 | -22.90984 | -43.05047 | 108° | 69km/h | 7880m | 5.1m/s | -19.5°C | 86.8% | 383.1hPa | 0V | 00:00:00 | 00:00:00 | 00:00:00 | |
| PU1XMG-16 | 2026-09-01 11:52:25 | -22.90980 | -43.05164 | 88° | 66km/h | 7839m | 5.1m/s | -19.2°C | 86.7% | 385.2hPa | 0V | 00:00:00 | 00:00:00 | 00:00:00 | |
| PU1XMG-16 | 2026-09-01 11:52:19 | -22.90964 | -43.05262 | 101° | 69km/h | 7802m | 9.6m/s | -18.9°C | 83.6% | 387.1hPa | 0V | 00:00:00 | 00:00:00 | 00:00:00 | |
| PU1XMG-16 | 2026-09-01 11:52:13 | -22.90958 | -43.05382 | 95° | 68km/h | 7761m | 5.3m/s | -18.7°C | 84.6% | 389.3hPa | 0V | 00:00:00 | 00:00:00 | 00:00:00 | |
| PU1XMG-16 | 2026-09-01 11:52:08 | -22.90953 | -43.05469 | 90° | 66km/h | 7727m | 4.3m/s | -18.5°C | 84.7% | 390.9hPa | 0V | 00:00:00 | 00:00:00 | 00:00:00 | |
| PU1XMG-16 | 2026-09-01 11:52:02 | -22.90944 | -43.05569 | 101° | 57km/h | 7692m | 9.4m/s | -18.8°C | 88.6% | 392.6hPa | 0V | 00:00:00 | 00:00:00 | 00:00:00 | |
| PU1XMG-16 | 2026-09-01 11:51:55 | -22.90933 | -43.05688 | 110° | 78km/h | 7648m | 4.7m/s | -18.4°C | 88.4% | 395.2hPa | 0V | 00:00:00 | 00:00:00 | 00:00:00 | |
| PU1XMG-16 | 2026-09-01 11:51:50 | -22.90908 | -43.05784 | 96° | 71km/h | 7618m | 4.3m/s | -18.3°C | 90.7% | 396.7hPa | 0V | 00:00:00 | 00:00:00 | 00:00:00 | |
| PU1XMG-16 | 2026-09-01 11:51:44 | -22.90898 | -43.05898 | 93° | 78km/h | 7576m | 8.0m/s | -18.0°C | 88.3% | 398.9hPa | 0V | 00:00:00 | 00:00:00 | 00:00:00 | |
| PU1XMG-16 | 2026-09-01 11:51:40 | -22.90899 | -43.06008 | 101° | 75km/h | 7545m | 5.9m/s | -17.7°C | 87.7% | 400.6hPa | 0V | 00:00:00 | 00:00:00 | 00:00:00 | |
| PU1XMG-16 | 2026-09-01 11:51:35 | -22.90879 | -43.06103 | 93° | 73km/h | 7516m | 4.5m/s | -17.4°C | 86.4% | 402.3hPa | 0V | 00:00:00 | 00:00:00 | 00:00:00 | |
| PU1XMG-16 | 2026-09-01 11:51:28 | -22.90873 | -43.06222 | 97° | 69km/h | 7477m | 6.0m/s | -17.1°C | 83.2% | 404.3hPa | 0V | 00:00:00 | 00:00:00 | 00:00:00 | |
| PU1XMG-16 | 2026-09-01 11:51:23 | -22.90866 | -43.06350 | 99° | 82km/h | 7438m | 5.4m/s | -16.7°C | 82.3% | 406.4hPa | 0V | 00:00:00 | 00:00:00 | 00:00:00 | |
| PU1XMG-16 | 2026-09-01 11:51:16 | -22.90846 | -43.06482 | 107° | 80km/h | 7401m | 6.6m/s | -16.4°C | 80.2% | 408.4hPa | 0V | 00:00:00 | 00:00:00 | 00:00:00 | |
| PU1XMG-16 | 2026-09-01 11:51:11 | -22.90825 | -43.06621 | 98° | 88km/h | 7362m | 8.6m/s | -16.1°C | 82.6% | 410.5hPa | 0V | 00:00:00 | 00:00:00 | 00:00:00 | |
| PU1XMG-16 | 2026-09-01 11:51:05 | -22.90807 | -43.06764 | 96° | 95km/h | 7324m | 6.9m/s | -15.8°C | 82.6% | 412.7hPa | 0V | 00:00:00 | 00:00:00 | 00:00:00 | |
| PU1XMG-16 | 2026-09-01 11:50:59 | -22.90787 | -43.06874 | 100° | 68km/h | 7294m | 6.2m/s | -15.5°C | 81.2% | 414.3hPa | 0V | 00:00:00 | 00:00:00 | 00:00:00 | |
| PU1XMG-16 | 2026-09-01 11:50:55 | -22.90766 | -43.06989 | 106° | 97km/h | 7265m | 7.1m/s | -15.3°C | 80.4% | 416.0hPa | 0V | 00:00:00 | 00:00:00 | 00:00:00 | |
| PU1XMG-16 | 2026-09-01 11:50:49 | -22.90754 | -43.07133 | 96° | 78km/h | 7233m | 6.8m/s | -15.0°C | 80.2% | 417.7hPa | 0V | 00:00:00 | 00:00:00 | 00:00:00 | |
| PU1XMG-16 | 2026-09-01 11:50:44 | -22.90734 | -43.07259 | 100° | 104km/h | 7200m | 8.8m/s | -14.8°C | 78.5% | 419.4hPa | 0V | 00:00:00 | 00:00:00 | 00:00:00 | |
| PU1XMG-16 | 2026-09-01 11:50:38 | -22.90729 | -43.07416 | 92° | 89km/h | 7164m | 5.2m/s | -14.6°C | 79.7% | 421.3hPa | 0V | 00:00:00 | 00:00:00 | 00:00:00 | |
| PU1XMG-16 | 2026-09-01 11:50:31 | -22.90701 | -43.07553 | 110° | 86km/h | 7123m | 6.9m/s | -14.3°C | 78.7% | 423.6hPa | 0V | 00:00:00 | 00:00:00 | 00:00:00 | |
| PU1XMG-16 | 2026-09-01 11:50:26 | -22.90658 | -43.07696 | 111° | 78km/h | 7091m | 3.4m/s | -14.6°C | 85.5% | 425.4hPa | 0V | 00:00:00 | 00:00:00 | 00:00:00 | |
| PU1XMG-16 | 2026-09-01 11:50:20 | -22.90630 | -43.07834 | 100° | 97km/h | 7058m | 6.5m/s | -14.8°C | 88.9% | 427.3hPa | 0V | 00:00:00 | 00:00:00 | 00:00:00 | |
| PU1XMG-16 | 2026-09-01 11:50:13 | -22.90597 | -43.07955 | 111° | 69km/h | 7019m | 5.5m/s | -14.9°C | 84.8% | 429.6hPa | 0V | 00:00:00 | 00:00:00 | 00:00:00 | |
| PU1XMG-16 | 2026-09-01 11:50:08 | -22.90564 | -43.08063 | 116° | 97km/h | 6991m | 6.2m/s | -14.6°C | 83.1% | 431.0hPa | 0V | 00:00:00 | 00:00:00 | 00:00:00 | |
| PU1XMG-16 | 2026-09-01 11:50:03 | -22.90512 | -43.08200 | 103° | 89km/h | 6956m | 8.9m/s | -14.3°C | 79.7% | 433.1hPa | 0V | 00:00:00 | 00:00:00 | 00:00:00 | |
| PU1XMG-16 | 2026-09-01 11:49:58 | -22.90490 | -43.08312 | 105° | 78km/h | 6927m | 4.2m/s | -14.0°C | 78.5% | 434.6hPa | 0V | 00:00:00 | 00:00:00 | 00:00:00 | |
| PU1XMG-16 | 2026-09-01 11:49:53 | -22.90450 | -43.08431 | 113° | 108km/h | 6898m | 7.1m/s | -13.8°C | 75.2% | 436.3hPa | 0V | 00:00:00 | 00:00:00 | 00:00:00 | |
| PU1XMG-16 | 2026-09-01 11:49:47 | -22.90401 | -43.08561 | 116° | 91km/h | 6869m | 6.7m/s | -13.5°C | 70.8% | 438.0hPa | 0V | 00:00:00 | 00:00:00 | 00:00:00 | |
| PU1XMG-16 | 2026-09-01 11:49:42 | -22.90347 | -43.08697 | 118° | 82km/h | 6828m | 8.6m/s | -13.2°C | 64.9% | 440.3hPa | 0V | 00:00:00 | 00:00:00 | 00:00:00 | |
| PU1XMG-16 | 2026-09-01 11:49:37 | -22.90289 | -43.08792 | 119° | 80km/h | 6795m | 6.0m/s | -13.1°C | 60.3% | 442.2hPa | 0V | 00:00:00 | 00:00:00 | 00:00:00 | |
| PU1XMG-16 | 2026-09-01 11:49:30 | -22.90239 | -43.08912 | 125° | 78km/h | 6760m | 4.8m/s | -12.8°C | 59.1% | 444.3hPa | 0V | 00:00:00 | 00:00:00 | 00:00:00 | |
| PU1XMG-16 | 2026-09-01 11:49:25 | -22.90169 | -43.09028 | 113° | 91km/h | 6726m | 4.1m/s | -12.5°C | 56.4% | 446.2hPa | 0V | 00:00:00 | 00:00:00 | 00:00:00 | |
| PU1XMG-16 | 2026-09-01 11:49:19 | -22.90107 | -43.09158 | 126° | 80km/h | 6688m | 9.3m/s | -12.3°C | 51.8% | 448.4hPa | 0V | 00:00:00 | 00:00:00 | 00:00:00 | |
| PU1XMG-16 | 2026-09-01 11:49:13 | -22.90034 | -43.09264 | 123° | 82km/h | 6654m | 7.9m/s | -12.0°C | 50.9% | 450.4hPa | 0V | 00:00:00 | 00:00:00 | 00:00:00 | |
| PU1XMG-16 | 2026-09-01 11:49:06 | -22.89977 | -43.09387 | 112° | 88km/h | 6614m | 7.0m/s | -11.7°C | 46.7% | 452.8hPa | 0V | 00:00:00 | 00:00:00 | 00:00:00 | |
| PU1XMG-16 | 2026-09-01 11:49:01 | -22.89914 | -43.09506 | 130° | 93km/h | 6581m | 4.9m/s | -11.4°C | 46.3% | 454.8hPa | 0V | 00:00:00 | 00:00:00 | 00:00:00 | |
| PU1XMG-16 | 2026-09-01 11:48:55 | -22.89841 | -43.09631 | 115° | 89km/h | 6537m | 4.1m/s | -11.0°C | 42.7% | 457.3hPa | 0V | 00:00:00 | 00:00:00 | 00:00:00 | |
| PU1XMG-16 | 2026-09-01 11:48:49 | -22.89771 | -43.09760 | 124° | 95km/h | 6507m | 9.4m/s | -10.8°C | 40.9% | 459.2hPa | 0V | 00:00:00 | 00:00:00 | 00:00:00 | |
| PU1XMG-16 | 2026-09-01 11:48:43 | -22.89703 | -43.09877 | 124° | 88km/h | 6461m | 8.3m/s | -10.4°C | 33.0% | 461.8hPa | 0V | 00:00:00 | 00:00:00 | 00:00:00 | |
| PU1XMG-16 | 2026-09-01 11:48:38 | -22.89637 | -43.09986 | 127° | 93km/h | 6427m | 6.7m/s | -10.1°C | 29.4% | 463.9hPa | 0V | 00:00:00 | 00:00:00 | 00:00:00 | |
| PU1XMG-16 | 2026-09-01 11:48:32 | -22.89574 | -43.10092 | 116° | 95km/h | 6397m | 6.6m/s | -9.9°C | 28.2% | 465.7hPa | 0V | 00:00:00 | 00:00:00 | 00:00:00 | |
| PU1XMG-16 | 2026-09-01 11:48:27 | -22.89524 | -43.10207 | 117° | 93km/h | 6366m | 8.2m/s | -9.6°C | 26.6% | 467.7hPa | 0V | 00:00:00 | 00:00:00 | 00:00:00 | |
| PU1XMG-16 | 2026-09-01 11:48:22 | -22.89438 | -43.10353 | 125° | 100km/h | 6324m | 7.8m/s | -9.3°C | 24.3% | 470.1hPa | 0V | 00:00:00 | 00:00:00 | 00:00:00 | |
| PU1XMG-16 | 2026-09-01 11:48:16 | -22.89381 | -43.10463 | 125° | 86km/h | 6294m | 4.9m/s | -9.0°C | 24.8% | 472.0hPa | 0V | 00:00:00 | 00:00:00 | 00:00:00 | |
| PU1XMG-16 | 2026-09-01 11:48:11 | -22.89318 | -43.10573 | 119° | 99km/h | 6261m | 8.7m/s | -8.7°C | 25.8% | 473.8hPa | 0V | 00:00:00 | 00:00:00 | 00:00:00 | |
| PU1XMG-16 | 2026-09-01 11:48:06 | -22.89238 | -43.10719 | 118° | 99km/h | 6225m | 5.2m/s | -8.5°C | 24.1% | 476.2hPa | 0V | 00:00:00 | 00:00:00 | 00:00:00 | |
| PU1XMG-16 | 2026-09-01 11:48:00 | -22.89166 | -43.10868 | 124° | 111km/h | 6194m | 5.2m/s | -8.2°C | 22.8% | 477.9hPa | 0V | 00:00:00 | 00:00:00 | 00:00:00 | |
| PU1XMG-16 | 2026-09-01 11:47:54 | -22.89095 | -43.11004 | 117° | 86km/h | 6155m | 4.1m/s | -7.8°C | 22.3% | 480.6hPa | 0V | 00:00:00 | 00:00:00 | 00:00:00 | |
| PU1XMG-16 | 2026-09-01 11:47:48 | -22.89035 | -43.11125 | 124° | 110km/h | 6131m | 6.9m/s | -7.6°C | 22.3% | 482.1hPa | 0V | 00:00:00 | 00:00:00 | 00:00:00 | |
| PU1XMG-16 | 2026-09-01 11:47:42 | -22.88962 | -43.11260 | 116° | 95km/h | 6094m | 6.4m/s | -7.3°C | 24.5% | 484.5hPa | 0V | 00:00:00 | 00:00:00 | 00:00:00 | |
| PU1XMG-16 | 2026-09-01 11:47:38 | -22.88903 | -43.11367 | 125° | 86km/h | 6057m | 5.9m/s | -7.0°C | 24.5% | 486.5hPa | 0V | 00:00:00 | 00:00:00 | 00:00:00 | |
| PU1XMG-16 | 2026-09-01 11:47:32 | -22.88821 | -43.11497 | 120° | 97km/h | 6019m | 8.5m/s | -6.8°C | 24.5% | 488.8hPa | 0V | 00:00:00 | 00:00:00 | 00:00:00 | |
| PU1XMG-16 | 2026-09-01 11:47:27 | -22.88768 | -43.11622 | 122° | 104km/h | 5989m | 5.6m/s | -6.4°C | 24.1% | 490.8hPa | 0V | 00:00:00 | 00:00:00 | 00:00:00 | |
| PU1XMG-16 | 2026-09-01 11:47:20 | -22.88687 | -43.11764 | 115° | 88km/h | 5958m | 6.2m/s | -6.2°C | 23.7% | 492.8hPa | 0V | 00:00:00 | 00:00:00 | 00:00:00 | |
| PU1XMG-16 | 2026-09-01 11:47:15 | -22.88635 | -43.11894 | 118° | 91km/h | 5917m | 6.6m/s | -5.8°C | 22.9% | 495.3hPa | 0V | 00:00:00 | 00:00:00 | 00:00:00 | |
| PU1XMG-16 | 2026-09-01 11:47:10 | -22.88583 | -43.12016 | 113° | 95km/h | 5883m | 4.6m/s | -5.6°C | 22.5% | 497.4hPa | 0V | 00:00:00 | 00:00:00 | 00:00:00 | |
| PU1XMG-16 | 2026-09-01 11:47:05 | -22.88523 | -43.12134 | 121° | 104km/h | 5849m | 5.0m/s | -5.3°C | 21.6% | 499.6hPa | 0V | 00:00:00 | 00:00:00 | 00:00:00 | |
| PU1XMG-16 | 2026-09-01 11:46:58 | -22.88454 | -43.12285 | 119° | 97km/h | 5813m | 9.7m/s | -5.0°C | 22.5% | 501.9hPa | 0V | 00:00:00 | 00:00:00 | 00:00:00 | |
| PU1XMG-16 | 2026-09-01 11:46:53 | -22.88391 | -43.12411 | 114° | 84km/h | 5768m | 5.1m/s | -4.7°C | 20.9% | 504.8hPa | 0V | 00:00:00 | 00:00:00 | 00:00:00 | |
| PU1XMG-16 | 2026-09-01 11:46:47 | -22.88346 | -43.12550 | 111° | 88km/h | 5727m | 4.2m/s | -4.3°C | 20.1% | 507.4hPa | 0V | 00:00:00 | 00:00:00 | 00:00:00 | |
| PU1XMG-16 | 2026-09-01 11:46:41 | -22.88279 | -43.12696 | 122° | 97km/h | 5684m | 5.3m/s | -3.9°C | 18.1% | 510.2hPa | 0V | 00:00:00 | 00:00:00 | 00:00:00 | |
| PU1XMG-16 | 2026-09-01 11:46:36 | -22.88225 | -43.12803 | 122° | 84km/h | 5652m | 5.9m/s | -3.9°C | 14.2% | 512.1hPa | 0V | 00:00:00 | 00:00:00 | 00:00:00 | |
| PU1XMG-16 | 2026-09-01 11:46:30 | -22.88164 | -43.12931 | 117° | 97km/h | 5620m | 6.9m/s | -3.9°C | 9.8% | 514.3hPa | 0V | 00:00:00 | 00:00:00 | 00:00:00 | |
| PU1XMG-16 | 2026-09-01 11:46:24 | -22.88109 | -43.13064 | 112° | 106km/h | 5590m | 6.3m/s | -4.3°C | 48.8% | 516.2hPa | 0V | 00:00:00 | 00:00:00 | 00:00:00 | |
| PU1XMG-16 | 2026-09-01 11:46:14 | -22.88017 | -43.13337 | 112° | 100km/h | 5517m | 5.4m/s | -4.2°C | 73.8% | 521.2hPa | 0V | 00:00:00 | 00:00:00 | 00:00:00 | |
| PU1XMG-16 | 2026-09-01 11:46:08 | -22.87969 | -43.13495 | 106° | 95km/h | 5475m | 7.1m/s | -4.4°C | 81.8% | 523.8hPa | 0V | 00:00:00 | 00:00:00 | 00:00:00 | |
| PU1XMG-16 | 2026-09-01 11:46:01 | -22.87933 | -43.13664 | 100° | 106km/h | 5438m | 8.2m/s | -5.4°C | 95.3% | 526.5hPa | 0V | 00:00:00 | 00:00:00 | 00:00:00 | |
| PU1XMG-16 | 2026-09-01 11:45:57 | -22.87901 | -43.13806 | 111° | 108km/h | 5403m | 5.9m/s | -5.5°C | 96.3% | 528.7hPa | 0V | 00:00:00 | 00:00:00 | 00:00:00 | |
| PU1XMG-16 | 2026-09-01 11:45:52 | -22.87856 | -43.13933 | 111° | 89km/h | 5370m | 5.4m/s | -5.2°C | 94.1% | 530.9hPa | 0V | 00:00:00 | 00:00:00 | 00:00:00 | |
| PU1XMG-16 | 2026-09-01 11:45:46 | -22.87816 | -43.14060 | 103° | 82km/h | 5332m | 5.4m/s | -4.8°C | 90.0% | 533.6hPa | 0V | 00:00:00 | 00:00:00 | 00:00:00 | |
| PU1XMG-16 | 2026-09-01 11:45:41 | -22.87779 | -43.14167 | 120° | 84km/h | 5289m | 6.1m/s | -4.5°C | 83.6% | 536.6hPa | 0V | 00:00:00 | 00:00:00 | 00:00:00 | |
| PU1XMG-16 | 2026-09-01 11:45:34 | -22.87732 | -43.14290 | 108° | 91km/h | 5248m | 7.2m/s | -4.2°C | 80.0% | 539.1hPa | 0V | 00:00:00 | 00:00:00 | 00:00:00 | |
| PU1XMG-16 | 2026-09-01 11:45:30 | -22.87692 | -43.14400 | 114° | 86km/h | 5215m | 9.3m/s | -4.0°C | 78.9% | 541.3hPa | 0V | 00:00:00 | 00:00:00 | 00:00:00 | |
| PU1XMG-16 | 2026-09-01 11:45:24 | -22.87632 | -43.14525 | 112° | 82km/h | 5176m | 4.7m/s | -3.6°C | 77.5% | 544.2hPa | 0V | 00:00:00 | 00:00:00 | 00:00:00 | |
| PU1XMG-16 | 2026-09-01 11:45:19 | -22.87574 | -43.14640 | 122° | 88km/h | 5135m | 7.0m/s | -3.3°C | 76.1% | 547.0hPa | 0V | 00:00:00 | 00:00:00 | 00:00:00 | |
| PU1XMG-16 | 2026-09-01 11:45:12 | -22.87525 | -43.14751 | 112° | 68km/h | 5093m | 7.1m/s | -3.2°C | 77.1% | 549.8hPa | 0V | 00:00:00 | 00:00:00 | 00:00:00 | |
| PU1XMG-16 | 2026-09-01 11:45:07 | -22.87484 | -43.14856 | 123° | 88km/h | 5062m | 5.4m/s | -3.0°C | 76.6% | 551.9hPa | 0V | 00:00:00 | 00:00:00 | 00:00:00 | |
| PU1XMG-16 | 2026-09-01 11:45:00 | -22.87404 | -43.14979 | 120° | 91km/h | 5023m | 7.1m/s | -2.7°C | 75.2% | 554.6hPa | 0V | 00:00:00 | 00:00:00 | 00:00:00 | |
| PU1XMG-16 | 2026-09-01 11:44:55 | -22.87351 | -43.15089 | 121° | 97km/h | 4993m | 3.9m/s | -2.4°C | 74.4% | 556.7hPa | 0V | 00:00:00 | 00:00:00 | 00:00:00 | |
| PU1XMG-16 | 2026-09-01 11:44:49 | -22.87284 | -43.15203 | 122° | 75km/h | 4958m | 3.2m/s | -2.2°C | 76.0% | 559.1hPa | 0V | 00:00:00 | 00:00:00 | 00:00:00 | |
| PU1XMG-16 | 2026-09-01 11:44:44 | -22.87235 | -43.15293 | 117° | 80km/h | 4935m | 5.9m/s | -2.1°C | 75.5% | 560.7hPa | 0V | 00:00:00 | 00:00:00 | 00:00:00 | |
| PU1XMG-16 | 2026-09-01 11:44:39 | -22.87172 | -43.15410 | 128° | 89km/h | 4899m | 6.9m/s | -1.8°C | 74.7% | 563.3hPa | 0V | 00:00:00 | 00:00:00 | 00:00:00 | |
| PU1XMG-16 | 2026-09-01 11:44:33 | -22.87116 | -43.15506 | 117° | 80km/h | 4871m | 5.9m/s | -1.6°C | 74.3% | 565.2hPa | 0V | 00:00:00 | 00:00:00 | 00:00:00 | |
| PU1XMG-16 | 2026-09-01 11:44:27 | -22.87046 | -43.15618 | 122° | 75km/h | 4833m | 5.8m/s | -1.3°C | 74.8% | 568.0hPa | 0V | 00:00:00 | 00:00:00 | 00:00:00 | |
| PU1XMG-16 | 2026-09-01 11:44:22 | -22.86993 | -43.15720 | 126° | 93km/h | 4805m | 5.1m/s | -1.1°C | 75.4% | 570.0hPa | 0V | 00:00:00 | 00:00:00 | 00:00:00 | |
| PU1XMG-16 | 2026-09-01 11:44:16 | -22.86926 | -43.15827 | 125° | 77km/h | 4768m | 4.6m/s | -0.8°C | 74.0% | 572.8hPa | 0V | 00:00:00 | 00:00:00 | 00:00:00 | |
| PU1XMG-16 | 2026-09-01 11:44:11 | -22.86871 | -43.15926 | 121° | 78km/h | 4741m | 3.7m/s | -0.6°C | 69.5% | 574.6hPa | 0V | 00:00:00 | 00:00:00 | 00:00:00 | |
| PU1XMG-16 | 2026-09-01 11:44:08 | -22.86808 | -43.16014 | 131° | 88km/h | 4714m | 8.7m/s | -0.5°C | 66.8% | 576.5hPa | 0V | 00:00:00 | 00:00:00 | 00:00:00 | |
| PU1XMG-16 | 2026-09-01 11:44:00 | -22.86734 | -43.16133 | 129° | 88km/h | 4679m | 7.6m/s | -0.3°C | 63.8% | 579.3hPa | 0V | 00:00:00 | 00:00:00 | 00:00:00 | |
| PU1XMG-16 | 2026-09-01 11:43:54 | -22.86660 | -43.16240 | 135° | 77km/h | 4642m | 6.0m/s | -0.2°C | 66.4% | 581.9hPa | 0V | 00:00:00 | 00:00:00 | 00:00:00 | |
| PU1XMG-16 | 2026-09-01 11:43:48 | -22.86579 | -43.16353 | 124° | 88km/h | 4607m | 4.7m/s | -0.0°C | 68.7% | 584.4hPa | 0V | 00:00:00 | 00:00:00 | 00:00:00 | |
| PU1XMG-16 | 2026-09-01 11:43:43 | -22.86507 | -43.16454 | 130° | 100km/h | 4578m | 8.1m/s | 0.0°C | 70.3% | 586.3hPa | 0V | 00:00:00 | 00:00:00 | 00:00:00 | |
| PU1XMG-16 | 2026-09-01 11:43:38 | -22.86424 | -43.16564 | 128° | 69km/h | 4541m | 5.4m/s | 0.2°C | 75.3% | 589.1hPa | 0V | 00:00:00 | 00:00:00 | 00:00:00 | |
| PU1XMG-16 | 2026-09-01 11:43:32 | -22.86365 | -43.16646 | 131° | 82km/h | 4510m | 9.0m/s | 0.4°C | 79.0% | 591.4hPa | 0V | 00:00:00 | 00:00:00 | 00:00:00 | |
| PU1XMG-16 | 2026-09-01 11:43:22 | -22.86219 | -43.16829 | 135° | 84km/h | 4442m | 4.4m/s | 0.6°C | 84.8% | 596.4hPa | 0V | 00:00:00 | 00:00:00 | 00:00:00 | |
| PU1XMG-16 | 2026-09-01 11:43:16 | -22.86143 | -43.16940 | 128° | 91km/h | 4406m | 8.4m/s | 0.8°C | 85.6% | 599.2hPa | 0V | 00:00:00 | 00:00:00 | 00:00:00 | |
| PU1XMG-16 | 2026-09-01 11:43:09 | -22.86058 | -43.17044 | 126° | 80km/h | 4374m | 10.0m/s | 1.0°C | 88.4% | 601.7hPa | 0V | 00:00:00 | 00:00:00 | 00:00:00 | |
| PU1XMG-16 | 2026-09-01 11:43:03 | -22.85997 | -43.17167 | 122° | 80km/h | 4340m | 5.3m/s | 1.2°C | 88.9% | 604.3hPa | 0V | 00:00:00 | 00:00:00 | 00:00:00 | |
| PU1XMG-16 | 2026-09-01 11:42:54 | -22.85866 | -43.17350 | 129° | 88km/h | 4285m | 4.5m/s | 1.6°C | 88.2% | 608.3hPa | 0V | 00:00:00 | 00:00:00 | 00:00:00 | |
| PU1XMG-16 | 2026-09-01 11:42:49 | -22.85809 | -43.17439 | 124° | 78km/h | 4254m | 6.3m/s | 1.6°C | 91.2% | 610.7hPa | 0V | 00:00:00 | 00:00:00 | 00:00:00 | |
| PU1XMG-16 | 2026-09-01 11:42:42 | -22.85740 | -43.17548 | 127° | 89km/h | 4219m | 6.6m/s | 1.5°C | 96.0% | 613.3hPa | 0V | 00:00:00 | 00:00:00 | 00:00:00 | |
| PU1XMG-16 | 2026-09-01 11:42:37 | -22.85679 | -43.17641 | 124° | 86km/h | 4188m | 5.6m/s | 1.6°C | 97.5% | 615.6hPa | 0V | 00:00:00 | 00:00:00 | 00:00:00 | |
| PU1XMG-16 | 2026-09-01 11:42:32 | -22.85620 | -43.17739 | 118° | 86km/h | 4157m | 4.8m/s | 1.8°C | 96.4% | 617.8hPa | 0V | 00:00:00 | 00:00:00 | 00:00:00 | |
| PU1XMG-16 | 2026-09-01 11:42:28 | -22.85558 | -43.17839 | 128° | 82km/h | 4128m | 5.5m/s | 2.1°C | 94.7% | 620.1hPa | 0V | 00:00:00 | 00:00:00 | 00:00:00 | |
| PU1XMG-16 | 2026-09-01 11:42:23 | -22.85490 | -43.17938 | 131° | 97km/h | 4100m | 5.8m/s | 2.3°C | 93.1% | 622.2hPa | 0V | 00:00:00 | 00:00:00 | 00:00:00 | |
| PU1XMG-16 | 2026-09-01 11:42:18 | -22.85429 | -43.18040 | 118° | 88km/h | 4075m | 4.7m/s | 2.6°C | 92.4% | 624.3hPa | 0V | 00:00:00 | 00:00:00 | 00:00:00 | |
| PU1XMG-16 | 2026-09-01 11:42:12 | -22.85351 | -43.18168 | 125° | 89km/h | 4038m | 6.3m/s | 2.7°C | 93.3% | 627.1hPa | 0V | 00:00:00 | 00:00:00 | 00:00:00 | |
| PU1XMG-16 | 2026-09-01 11:42:05 | -22.85271 | -43.18295 | 121° | 88km/h | 4001m | 5.2m/s | 3.0°C | 93.1% | 629.9hPa | 0V | 00:00:00 | 00:00:00 | 00:00:00 | |
| PU1XMG-16 | 2026-09-01 11:42:01 | -22.85210 | -43.18405 | 124° | 93km/h | 3970m | 7.3m/s | 3.3°C | 91.9% | 632.2hPa | 0V | 00:00:00 | 00:00:00 | 00:00:00 | |
| PU1XMG-16 | 2026-09-01 11:41:55 | -22.85152 | -43.18508 | 123° | 82km/h | 3939m | 7.9m/s | 3.5°C | 91.6% | 634.7hPa | 0V | 00:00:00 | 00:00:00 | 00:00:00 | |
| PU1XMG-16 | 2026-09-01 11:41:49 | -22.85084 | -43.18639 | 115° | 99km/h | 3904m | 6.2m/s | 3.8°C | 91.0% | 637.5hPa | 0V | 00:00:00 | 00:00:00 | 00:00:00 | |
| PU1XMG-16 | 2026-09-01 11:41:43 | -22.85013 | -43.18780 | 120° | 89km/h | 3865m | 10.1m/s | 3.9°C | 93.0% | 640.5hPa | 0V | 00:00:00 | 00:00:00 | 00:00:00 | |
| PU1XMG-16 | 2026-09-01 11:41:38 | -22.84966 | -43.18878 | 124° | 88km/h | 3830m | 5.0m/s | 4.2°C | 91.6% | 643.2hPa | 0V | 00:00:00 | 00:00:00 | 00:00:00 | |
| PU1XMG-16 | 2026-09-01 11:41:32 | -22.84882 | -43.19018 | 119° | 99km/h | 3792m | 7.6m/s | 4.5°C | 90.1% | 646.2hPa | 0V | 00:00:00 | 00:00:00 | 00:00:00 | |
| PU1XMG-16 | 2026-09-01 11:41:28 | -22.84829 | -43.19127 | 120° | 95km/h | 3762m | 7.1m/s | 4.8°C | 88.7% | 648.7hPa | 0V | 00:00:00 | 00:00:00 | 00:00:00 | |
| PU1XMG-16 | 2026-09-01 11:41:21 | -22.84759 | -43.19264 | 117° | 95km/h | 3726m | 6.5m/s | 5.1°C | 86.4% | 651.5hPa | 0V | 00:00:00 | 00:00:00 | 00:00:00 | |
| PU1XMG-16 | 2026-09-01 11:41:16 | -22.84701 | -43.19371 | 119° | 88km/h | 3694m | 6.1m/s | 5.2°C | 86.7% | 653.9hPa | 0V | 00:00:00 | 00:00:00 | 00:00:00 | |
| PU1XMG-16 | 2026-09-01 11:41:11 | -22.84640 | -43.19480 | 129° | 89km/h | 3663m | 5.2m/s | 5.2°C | 90.1% | 656.4hPa | 0V | 00:00:00 | 00:00:00 | 00:00:00 | |
| PU1XMG-16 | 2026-09-01 11:41:05 | -22.84558 | -43.19604 | 127° | 93km/h | 3628m | 8.7m/s | 5.5°C | 88.4% | 659.3hPa | 0V | 00:00:00 | 00:00:00 | 00:00:00 | |
| PU1XMG-16 | 2026-09-01 11:41:00 | -22.84488 | -43.19704 | 131° | 89km/h | 3595m | 6.6m/s | 5.7°C | 87.5% | 661.9hPa | 0V | 00:00:00 | 00:00:00 | 00:00:00 | |
| PU1XMG-16 | 2026-09-01 11:40:54 | -22.84404 | -43.19827 | 129° | 89km/h | 3559m | 5.8m/s | 6.0°C | 86.1% | 664.8hPa | 0V | 00:00:00 | 00:00:00 | 00:00:00 | |
| PU1XMG-16 | 2026-09-01 11:40:49 | -22.84344 | -43.19924 | 126° | 91km/h | 3529m | 6.0m/s | 6.3°C | 84.3% | 667.3hPa | 0V | 00:00:00 | 00:00:00 | 00:00:00 | |
| PU1XMG-16 | 2026-09-01 11:40:44 | -22.84267 | -43.20044 | 129° | 80km/h | 3497m | 6.0m/s | 6.6°C | 83.1% | 669.9hPa | 0V | 00:00:00 | 00:00:00 | 00:00:00 | |
| PU1XMG-16 | 2026-09-01 11:40:38 | -22.84196 | -43.20141 | 126° | 91km/h | 3468m | 4.6m/s | 6.9°C | 81.7% | 672.2hPa | 0V | 00:00:00 | 00:00:00 | 00:00:00 | |
| PU1XMG-16 | 2026-09-01 11:40:33 | -22.84125 | -43.20235 | 130° | 97km/h | 3441m | 5.7m/s | 7.1°C | 79.3% | 674.6hPa | 0V | 00:00:00 | 00:00:00 | 00:00:00 | |
| PU1XMG-16 | 2026-09-01 11:40:27 | -22.84038 | -43.20353 | 136° | 95km/h | 3402m | 6.5m/s | 7.4°C | 77.2% | 677.6hPa | 0V | 00:00:00 | 00:00:00 | 00:00:00 | |
| PU1XMG-16 | 2026-09-01 11:40:22 | -22.83959 | -43.20450 | 130° | 91km/h | 3371m | 7.7m/s | 7.7°C | 76.0% | 680.3hPa | 0V | 00:00:00 | 00:00:00 | 00:00:00 | |
| PU1XMG-16 | 2026-09-01 11:40:16 | -22.83877 | -43.20570 | 131° | 91km/h | 3329m | 5.9m/s | 8.0°C | 75.3% | 683.6hPa | 0V | 00:00:00 | 00:00:00 | 00:00:00 | |
| PU1XMG-16 | 2026-09-01 11:40:12 | -22.83805 | -43.20668 | 130° | 91km/h | 3295m | 7.3m/s | 8.3°C | 73.8% | 686.5hPa | 0V | 00:00:00 | 00:00:00 | 00:00:00 | |
| PU1XMG-16 | 2026-09-01 11:40:05 | -22.83714 | -43.20775 | 139° | 84km/h | 3257m | 7.6m/s | 8.6°C | 72.2% | 689.5hPa | 0V | 00:00:00 | 00:00:00 | 00:00:00 | |
| PU1XMG-16 | 2026-09-01 11:40:00 | -22.83647 | -43.20862 | 129° | 91km/h | 3228m | 5.0m/s | 8.9°C | 71.4% | 692.0hPa | 0V | 00:00:00 | 00:00:00 | 00:00:00 | |
| PU1XMG-16 | 2026-09-01 11:39:55 | -22.83576 | -43.20952 | 130° | 88km/h | 3196m | 8.8m/s | 9.2°C | 70.1% | 694.8hPa | 0V | 00:00:00 | 00:00:00 | 00:00:00 | |
| PU1XMG-16 | 2026-09-01 11:39:50 | -22.83508 | -43.21045 | 130° | 86km/h | 3162m | 7.4m/s | 9.4°C | 69.1% | 697.4hPa | 0V | 00:00:00 | 00:00:00 | 00:00:00 | |
| PU1XMG-16 | 2026-09-01 11:39:44 | -22.83413 | -43.21151 | 132° | 89km/h | 3122m | 6.2m/s | 9.7°C | 68.3% | 700.8hPa | 0V | 00:00:00 | 00:00:00 | 00:00:00 | |
| PU1XMG-16 | 2026-09-01 11:39:39 | -22.83340 | -43.21241 | 132° | 91km/h | 3091m | 10.0m/s | 10.0°C | 67.0% | 703.5hPa | 0V | 00:00:00 | 00:00:00 | 00:00:00 | |
| PU1XMG-16 | 2026-09-01 11:39:35 | -22.83257 | -43.21327 | 135° | 86km/h | 3057m | 6.5m/s | 10.3°C | 65.9% | 706.3hPa | 0V | 00:00:00 | 00:00:00 | 00:00:00 | |
| PU1XMG-16 | 2026-09-01 11:39:30 | -22.83188 | -43.21408 | 140° | 80km/h | 3027m | 6.0m/s | 10.5°C | 65.0% | 708.9hPa | 0V | 00:00:00 | 00:00:00 | 00:00:00 | |
| PU1XMG-16 | 2026-09-01 11:39:23 | -22.83099 | -43.21511 | 129° | 78km/h | 2990m | 6.0m/s | 10.6°C | 64.6% | 711.9hPa | 0V | 00:00:00 | 00:00:00 | 00:00:00 | |
| PU1XMG-16 | 2026-09-01 11:39:19 | -22.83026 | -43.21594 | 142° | 89km/h | 2950m | 8.1m/s | 10.9°C | 62.3% | 715.2hPa | 0V | 00:00:00 | 00:00:00 | 00:00:00 | |
| PU1XMG-16 | 2026-09-01 11:39:12 | -22.82928 | -43.21698 | 130° | 80km/h | 2915m | 7.4m/s | 11.0°C | 63.9% | 718.4hPa | 0V | 00:00:00 | 00:00:00 | 00:00:00 | |
| PU1XMG-16 | 2026-09-01 11:39:07 | -22.82846 | -43.21799 | 135° | 82km/h | 2878m | 7.2m/s | 11.0°C | 67.1% | 721.5hPa | 0V | 00:00:00 | 00:00:00 | 00:00:00 | |
| PU1XMG-16 | 2026-09-01 11:39:01 | -22.82763 | -43.21875 | 138° | 95km/h | 2842m | 6.2m/s | 11.2°C | 65.7% | 724.7hPa | 0V | 00:00:00 | 00:00:00 | 00:00:00 | |
| PU1XMG-16 | 2026-09-01 11:38:56 | -22.82687 | -43.21959 | 140° | 82km/h | 2811m | 6.5m/s | 11.4°C | 65.6% | 727.3hPa | 0V | 00:00:00 | 00:00:00 | 00:00:00 | |
| PU1XMG-16 | 2026-09-01 11:38:50 | -22.82596 | -43.22066 | 134° | 86km/h | 2772m | 6.2m/s | 11.6°C | 66.6% | 730.8hPa | 0V | 00:00:00 | 00:00:00 | 00:00:00 | |
| PU1XMG-16 | 2026-09-01 11:38:45 | -22.82519 | -43.22156 | 129° | 89km/h | 2742m | 8.2m/s | 11.7°C | 66.9% | 733.5hPa | 0V | 00:00:00 | 00:00:00 | 00:00:00 | |
| PU1XMG-16 | 2026-09-01 11:38:39 | -22.82434 | -43.22257 | 132° | 82km/h | 2706m | 5.9m/s | 11.9°C | 68.3% | 736.5hPa | 0V | 00:00:00 | 00:00:00 | 00:00:00 | |
| PU1XMG-16 | 2026-09-01 11:38:33 | -22.82339 | -43.22368 | 129° | 97km/h | 2668m | 4.9m/s | 11.8°C | 70.4% | 739.9hPa | 0V | 00:00:00 | 00:00:00 | 00:00:00 | |
| PU1XMG-16 | 2026-09-01 11:38:28 | -22.82262 | -43.22459 | 135° | 84km/h | 2636m | 8.4m/s | 11.6°C | 72.6% | 742.6hPa | 0V | 00:00:00 | 00:00:00 | 00:00:00 | |
| PU1XMG-16 | 2026-09-01 11:38:22 | -22.82165 | -43.22564 | 140° | 86km/h | 2594m | 6.9m/s | 11.4°C | 74.8% | 746.4hPa | 0V | 00:00:00 | 00:00:00 | 00:00:00 | |
| PU1XMG-16 | 2026-09-01 11:38:18 | -22.82089 | -43.22641 | 135° | 75km/h | 2564m | 6.4m/s | 11.5°C | 75.9% | 749.2hPa | 0V | 00:00:00 | 00:00:00 | 00:00:00 | |
| PU1XMG-16 | 2026-09-01 11:38:11 | -22.82008 | -43.22732 | 136° | 71km/h | 2526m | 5.2m/s | 11.8°C | 75.9% | 752.6hPa | 0V | 00:00:00 | 00:00:00 | 00:00:00 | |
| PU1XMG-16 | 2026-09-01 11:38:06 | -22.81942 | -43.22806 | 137° | 75km/h | 2495m | 6.9m/s | 11.9°C | 76.0% | 755.4hPa | 0V | 00:00:00 | 00:00:00 | 00:00:00 | |
| PU1XMG-16 | 2026-09-01 11:38:00 | -22.81867 | -43.22896 | 138° | 73km/h | 2459m | 6.5m/s | 12.1°C | 76.5% | 758.5hPa | 0V | 00:00:00 | 00:00:00 | 00:00:00 | |
| PU1XMG-16 | 2026-09-01 11:37:55 | -22.81804 | -43.22965 | 137° | 75km/h | 2426m | 5.5m/s | 12.4°C | 75.2% | 761.4hPa | 0V | 00:00:00 | 00:00:00 | 00:00:00 | |
| PU1XMG-16 | 2026-09-01 11:37:49 | -22.81728 | -43.23044 | 137° | 71km/h | 2393m | 5.9m/s | 12.3°C | 78.1% | 764.5hPa | 0V | 00:00:00 | 00:00:00 | 00:00:00 | |
| PU1XMG-16 | 2026-09-01 11:37:44 | -22.81674 | -43.23102 | 130° | 55km/h | 2365m | 8.0m/s | 12.4°C | 78.1% | 767.2hPa | 0V | 00:00:00 | 00:00:00 | 00:00:00 | |
| PU1XMG-16 | 2026-09-01 11:37:38 | -22.81619 | -43.23168 | 135° | 58km/h | 2328m | 6.7m/s | 12.7°C | 77.1% | 770.6hPa | 0V | 00:00:00 | 00:00:00 | 00:00:00 | |
| PU1XMG-16 | 2026-09-01 11:37:33 | -22.81570 | -43.23226 | 131° | 64km/h | 2297m | 7.2m/s | 12.8°C | 77.5% | 773.7hPa | 0V | 00:00:00 | 00:00:00 | 00:00:00 | |
| PU1XMG-16 | 2026-09-01 11:37:28 | -22.81508 | -43.23295 | 134° | 69km/h | 2270m | 6.7m/s | 12.9°C | 78.0% | 775.9hPa | 0V | 00:00:00 | 00:00:00 | 00:00:00 | |
| PU1XMG-16 | 2026-09-01 11:37:23 | -22.81457 | -43.23356 | 134° | 55km/h | 2238m | 6.9m/s | 13.0°C | 78.9% | 778.6hPa | 0V | 00:00:00 | 00:00:00 | 00:00:00 | |
| PU1XMG-16 | 2026-09-01 11:37:17 | -22.81406 | -43.23421 | 135° | 55km/h | 2201m | 6.1m/s | 13.3°C | 77.9% | 782.0hPa | 0V | 00:00:00 | 00:00:00 | 00:00:00 | |
| PU1XMG-16 | 2026-09-01 11:37:12 | -22.81368 | -43.23475 | 130° | 44km/h | 2173m | 6.3m/s | 13.6°C | 76.6% | 784.8hPa | 0V | 00:00:00 | 00:00:00 | 00:00:00 | |
| PU1XMG-16 | 2026-09-01 11:37:08 | -22.81326 | -43.23525 | 136° | 53km/h | 2143m | 6.6m/s | 13.7°C | 76.4% | 787.6hPa | 0V | 00:00:00 | 00:00:00 | 00:00:00 | |
| PU1XMG-16 | 2026-09-01 11:37:01 | -22.81268 | -43.23588 | 133° | 47km/h | 2104m | 7.1m/s | 14.0°C | 75.4% | 791.1hPa | 0V | 00:00:00 | 00:00:00 | 00:00:00 | |
| PU1XMG-16 | 2026-09-01 11:36:55 | -22.81210 | -43.23645 | 135° | 53km/h | 2069m | 6.3m/s | 14.4°C | 74.3% | 794.6hPa | 0V | 00:00:00 | 00:00:00 | 00:00:00 | |
| PU1XMG-16 | 2026-09-01 11:36:50 | -22.81160 | -43.23699 | 129° | 53km/h | 2039m | 6.2m/s | 14.5°C | 73.9% | 797.5hPa | 0V | 00:00:00 | 00:00:00 | 00:00:00 | |
| PU1XMG-16 | 2026-09-01 11:36:44 | -22.81120 | -43.23752 | 130° | 47km/h | 2004m | 5.6m/s | 14.7°C | 74.9% | 800.6hPa | 0V | 00:00:00 | 00:00:00 | 00:00:00 | |
| PU1XMG-16 | 2026-09-01 11:36:38 | -22.81062 | -43.23809 | 144° | 47km/h | 1971m | 8.7m/s | 15.0°C | 74.1% | 803.4hPa | 0V | 00:00:00 | 00:00:00 | 00:00:00 | |
| PU1XMG-16 | 2026-09-01 11:36:33 | -22.81010 | -43.23866 | 133° | 55km/h | 1935m | 6.8m/s | 15.3°C | 73.6% | 807.2hPa | 0V | 00:00:00 | 00:00:00 | 00:00:00 | |
| PU1XMG-16 | 2026-09-01 11:36:21 | -22.80934 | -43.23981 | 121° | 51km/h | 1864m | 6.9m/s | 15.7°C | 72.8% | 813.7hPa | 0V | 00:00:00 | 00:00:00 | 00:00:00 | |
| PU1XMG-16 | 2026-09-01 11:36:16 | -22.80893 | -43.24035 | 135° | 46km/h | 1835m | 4.8m/s | 15.9°C | 72.5% | 816.5hPa | 0V | 00:00:00 | 00:00:00 | 00:00:00 | |
| PU1XMG-16 | 2026-09-01 11:36:10 | -22.80844 | -43.24089 | 129° | 49km/h | 1802m | 7.2m/s | 15.7°C | 75.9% | 819.7hPa | 0V | 00:00:00 | 00:00:00 | 00:00:00 | |
| PU1XMG-16 | 2026-09-01 11:35:54 | -22.80742 | -43.24220 | 124° | 31km/h | 1708m | 5.8m/s | 15.6°C | 81.4% | 828.8hPa | 0V | 00:00:00 | 00:00:00 | 00:00:00 | |
| PU1XMG-16 | 2026-09-01 11:35:49 | -22.80709 | -43.24259 | 142° | 33km/h | 1673m | 6.2m/s | 15.9°C | 79.8% | 832.3hPa | 0V | 00:00:00 | 00:00:00 | 00:00:00 | |
| PU1XMG-16 | 2026-09-01 11:35:43 | -22.80680 | -43.24280 | 147° | 29km/h | 1645m | 5.0m/s | 15.7°C | 81.4% | 835.2hPa | 0V | 00:00:00 | 00:00:00 | 00:00:00 | |
| PU1XMG-16 | 2026-09-01 11:35:37 | -22.80643 | -43.24303 | 152° | 31km/h | 1605m | 7.4m/s | 15.1°C | 86.3% | 839.0hPa | 0V | 00:00:00 | 00:00:00 | 00:00:00 | |
| PU1XMG-16 | 2026-09-01 11:35:32 | -22.80616 | -43.24316 | 171° | 15km/h | 1568m | 5.2m/s | 15.1°C | 88.9% | 842.6hPa | 0V | 00:00:00 | 00:00:00 | 00:00:00 | |
| PU1XMG-16 | 2026-09-01 11:35:26 | -22.80595 | -43.24323 | 167° | 16km/h | 1526m | 9.5m/s | 15.2°C | 89.4% | 846.7hPa | 0V | 00:00:00 | 00:00:00 | 00:00:00 | |
| PU1XMG-16 | 2026-09-01 11:35:20 | -22.80573 | -43.24330 | 150° | 16km/h | 1487m | 6.7m/s | 15.2°C | 91.9% | 850.9hPa | 0V | 00:00:00 | 00:00:00 | 00:00:00 | |
| PU1XMG-16 | 2026-09-01 11:35:15 | -22.80551 | -43.24335 | 168° | 22km/h | 1453m | 6.8m/s | 15.5°C | 90.9% | 853.9hPa | 0V | 00:00:00 | 00:00:00 | 00:00:00 | |
| PU1XMG-16 | 2026-09-01 11:35:11 | -22.80530 | -43.24332 | 189° | 15km/h | 1418m | 7.3m/s | 15.3°C | 94.8% | 857.7hPa | 0V | 00:00:00 | 00:00:00 | 00:00:00 | |
| PU1XMG-16 | 2026-09-01 11:35:05 | -22.80519 | -43.24325 | 168° | 7km/h | 1376m | 5.4m/s | 15.7°C | 93.9% | 861.6hPa | 0V | 00:00:00 | 00:00:00 | 00:00:00 | |
| PU1XMG-16 | 2026-09-01 11:34:58 | -22.80510 | -43.24329 | 204° | 11km/h | 1339m | 4.9m/s | 15.9°C | 92.7% | 865.5hPa | 0V | 00:00:00 | 00:00:00 | 00:00:00 | |
| PU1XMG-16 | 2026-09-01 11:34:52 | -22.80496 | -43.24320 | 223° | 15km/h | 1301m | 6.9m/s | 16.2°C | 91.4% | 869.2hPa | 0V | 00:00:00 | 00:00:00 | 00:00:00 | |
| PU1XMG-16 | 2026-09-01 11:34:47 | -22.80482 | -43.24318 | 177° | 16km/h | 1269m | 7.2m/s | 16.4°C | 90.3% | 872.5hPa | 0V | 00:00:00 | 00:00:00 | 00:00:00 | |
| PU1XMG-16 | 2026-09-01 11:34:42 | -22.80461 | -43.24323 | 160° | 18km/h | 1239m | 8.6m/s | 16.6°C | 89.1% | 875.6hPa | 0V | 00:00:00 | 00:00:00 | 00:00:00 | |
| PU1XMG-16 | 2026-09-01 11:34:36 | -22.80454 | -43.24340 | 72° | 9km/h | 1195m | 6.5m/s | 16.9°C | 87.4% | 880.0hPa | 0V | 00:00:00 | 00:00:00 | 00:00:00 | |
| PU1XMG-16 | 2026-09-01 11:34:26 | -22.80468 | -43.24381 | 62° | 16km/h | 1121m | 4.9m/s | 17.6°C | 84.5% | 887.9hPa | 0V | 00:00:00 | 00:00:00 | 00:00:00 | |
| PU1XMG-16 | 2026-09-01 11:34:20 | -22.80477 | -43.24400 | 73° | 7km/h | 1086m | 6.2m/s | 17.9°C | 81.3% | 891.5hPa | 0V | 00:00:00 | 00:00:00 | 00:00:00 | |
| PU1XMG-16 | 2026-09-01 11:34:15 | -22.80481 | -43.24420 | 63° | 18km/h | 1060m | 3.2m/s | 18.2°C | 80.8% | 894.4hPa | 0V | 00:00:00 | 00:00:00 | 00:00:00 | |
| PU1XMG-16 | 2026-09-01 11:34:10 | -22.80491 | -43.24445 | 65° | 24km/h | 1025m | 8.3m/s | 18.5°C | 79.0% | 898.4hPa | 0V | 00:00:00 | 00:00:00 | 00:00:00 | |
| PU1XMG-16 | 2026-09-01 11:34:03 | -22.80506 | -43.24471 | 51° | 15km/h | 979m | 6.3m/s | 18.9°C | 77.3% | 902.7hPa | 0V | 00:00:00 | 00:00:00 | 00:00:00 | |
| PU1XMG-16 | 2026-09-01 11:33:57 | -22.80520 | -43.24488 | 27° | 16km/h | 936m | 6.2m/s | 19.2°C | 74.6% | 907.1hPa | 0V | 00:00:00 | 00:00:00 | 00:00:00 | |
| PU1XMG-16 | 2026-09-01 11:33:52 | -22.80534 | -43.24501 | 33° | 16km/h | 908m | 7.2m/s | 19.5°C | 73.1% | 910.4hPa | 0V | 00:00:00 | 00:00:00 | 00:00:00 | |
| PU1XMG-16 | 2026-09-01 11:33:47 | -22.80555 | -43.24510 | 12° | 20km/h | 882m | 5.4m/s | 19.5°C | 71.4% | 913.3hPa | 0V | 00:00:00 | 00:00:00 | 00:00:00 | |
| PU1XMG-16 | 2026-09-01 11:33:42 | -22.80582 | -43.24532 | 44° | 27km/h | 843m | 8.1m/s | 19.7°C | 0% | 917.1hPa | 0V | 00:00:00 | 00:00:00 | 00:00:00 | |
| PU1XMG-16 | 2026-09-01 11:33:35 | -22.80616 | -43.24563 | 36° | 35km/h | 800m | 7.6m/s | 19.9°C | 0% | 921.5hPa | 0V | 00:00:00 | 00:00:00 | 00:00:00 | |
| PU1XMG-16 | 2026-09-01 11:33:26 | -22.80687 | -43.24614 | 42° | 26km/h | 735m | 7.8m/s | 0°C | 0% | 928.4hPa | 0V | 00:00:00 | 00:00:00 | 00:00:00 | |
| PU1XMG-16 | 2026-09-01 11:33:20 | -22.80718 | -43.24630 | 31° | 35km/h | 703m | 5.4m/s | 0°C | 0% | 931.9hPa | 0V | 00:00:00 | 00:00:00 | 00:00:00 | |
| PU1XMG-16 | 2026-09-01 11:33:14 | -22.80759 | -43.24652 | 31° | 31km/h | 667m | 6.0m/s | 0°C | 0% | 0hPa | 0V | 00:00:00 | 00:00:00 | 00:00:00 | |
| PU1XMG-16 | 2026-09-01 11:33:09 | -22.80790 | -43.24671 | 33° | 24km/h | 632m | 8.8m/s | 0°C | 0% | 0hPa | 0V | 00:00:00 | 00:00:00 | 00:00:00 | |
| PU1XMG-16 | 2026-09-01 11:33:04 | -22.80822 | -43.24694 | 36° | 27km/h | 589m | 6.4m/s | 0°C | 0% | 0hPa | 0V | 00:00:00 | 00:00:00 | 00:00:00 | |
| PU1XMG-16 | 2026-09-01 11:32:58 | -22.80860 | -43.24721 | 26° | 35km/h | 552m | 5.1m/s | 0°C | 0% | 0hPa | 0V | 00:00:00 | 00:00:00 | 00:00:00 | |
| PU1XMG-16 | 2026-09-01 11:32:52 | -22.80891 | -43.24736 | 40° | 22km/h | 514m | 6.3m/s | 0°C | 0% | 0hPa | 0V | 00:00:00 | 00:00:00 | 00:00:00 | |
| PU1XMG-16 | 2026-09-01 11:32:46 | -22.80910 | -43.24756 | 42° | 26km/h | 480m | 6.8m/s | 0°C | 0% | 0hPa | 0V | 00:00:00 | 00:00:00 | 00:00:00 |